Terminal Aerodrome Forecast
Issued by NWS

Home | Current Version | Previous Version | Text Only | Print | Product List | Glossary On
Versions: 1 2 3 4 5 6 7 8 9 10 11 12 13 14
000
FTAK31 PAFA 230521
TAFAUN
TAF
PAUN 230521Z 2306/2406 26006KT P6SM FEW100 BKN200
     FM231500 24014G22KT P6SM VCSH BKN015 OVC025
     FM231900 21020G30KT 3SM -SHRA BR BKN015 OVC025=

USA.gov is the U.S. government's official web portal to all federal, state and local government web resources and services.